createdAt,value
2022-10-06T00:00:19.516Z,9.78
2022-10-06T00:01:19.685Z,10.69
2022-10-06T00:02:19.532Z,9.72
2022-10-06T00:03:19.487Z,10.31
2022-10-06T00:04:19.471Z,9.83
2022-10-06T00:05:19.472Z,10.53
2022-10-06T00:06:19.451Z,9.83
2022-10-06T00:07:19.453Z,9.51
2022-10-06T00:08:19.429Z,9.83
2022-10-06T00:09:19.422Z,9.24
2022-10-06T00:10:19.409Z,9.78
2022-10-06T00:11:19.412Z,9.83
2022-10-06T00:12:19.388Z,9.83
2022-10-06T00:13:19.378Z,9.18
2022-10-06T00:14:19.365Z,9.24
2022-10-06T00:15:19.379Z,9.83
2022-10-06T00:16:19.384Z,10.58
2022-10-06T00:17:19.335Z,9.24
2022-10-06T00:18:19.323Z,9.45
2022-10-06T00:19:19.315Z,9.13
2022-10-06T00:20:19.300Z,9.24
2022-10-06T00:21:19.300Z,10.42
2022-10-06T00:22:19.291Z,9.78
2022-10-06T00:23:19.270Z,9.78
2022-10-06T00:24:19.267Z,10.63
2022-10-06T00:25:19.250Z,9.83
2022-10-06T00:26:19.238Z,9.83
2022-10-06T00:27:19.238Z,9.78
2022-10-06T00:28:19.304Z,9.08
2022-10-06T00:29:19.206Z,9.72
2022-10-06T00:30:19.191Z,9.67
2022-10-06T00:31:19.271Z,10.74
2022-10-06T00:32:19.171Z,10.63
2022-10-06T00:33:19.172Z,10.74
2022-10-06T00:34:19.171Z,9.67
2022-10-06T00:35:19.142Z,9.83
2022-10-06T00:36:19.131Z,10.47
2022-10-06T00:37:19.122Z,9.83
2022-10-06T00:38:19.107Z,9.99
2022-10-06T00:39:19.108Z,9.72
2022-10-06T00:40:19.086Z,10.58
2022-10-06T00:41:19.078Z,8.70
2022-10-06T00:42:19.065Z,10.69
2022-10-06T00:43:19.055Z,9.67
2022-10-06T00:44:19.050Z,9.72
2022-10-06T00:45:19.038Z,9.51
2022-10-06T00:46:19.110Z,9.72
2022-10-06T00:47:19.043Z,10.21
2022-10-06T00:48:19.002Z,10.47
2022-10-06T00:49:19.000Z,9.83
2022-10-06T00:50:18.976Z,8.75
2022-10-06T00:51:18.969Z,9.72
2022-10-06T00:52:18.957Z,9.78
2022-10-06T00:53:18.952Z,8.49
2022-10-06T00:54:18.947Z,9.78
2022-10-06T00:55:18.947Z,9.78
2022-10-06T00:56:18.912Z,9.99
2022-10-06T00:57:18.903Z,9.72
2022-10-06T00:58:18.893Z,9.78
2022-10-06T00:59:18.886Z,9.72
2022-10-06T01:00:18.880Z,11.06
2022-10-06T01:01:18.973Z,10.96
2022-10-06T01:02:18.888Z,8.75
2022-10-06T01:03:18.842Z,9.88
2022-10-06T01:04:18.827Z,9.08
2022-10-06T01:05:18.831Z,10.74
2022-10-06T01:06:18.818Z,9.78
2022-10-06T01:07:18.799Z,8.92
2022-10-06T01:08:18.785Z,9.83
2022-10-06T01:09:18.777Z,9.72
2022-10-06T01:10:18.762Z,9.24
2022-10-06T01:11:18.763Z,9.78
2022-10-06T01:12:18.747Z,9.83
2022-10-06T01:13:18.751Z,9.83
2022-10-06T01:14:18.720Z,9.83
2022-10-06T01:15:18.713Z,9.83
2022-10-06T01:16:18.754Z,9.88
2022-10-06T01:17:18.692Z,9.29
2022-10-06T01:18:18.681Z,9.78
2022-10-06T01:19:18.668Z,9.83
2022-10-06T01:20:18.656Z,10.74
2022-10-06T01:21:18.651Z,9.02
2022-10-06T01:22:18.644Z,10.90
2022-10-06T01:23:18.634Z,9.94
2022-10-06T01:24:18.615Z,9.78
2022-10-06T01:25:18.603Z,9.72
2022-10-06T01:26:18.591Z,9.78
2022-10-06T01:27:18.597Z,8.86
2022-10-06T01:28:18.652Z,9.83
2022-10-06T01:29:18.565Z,9.72
2022-10-06T01:30:18.550Z,8.92
2022-10-06T01:31:18.661Z,9.18
2022-10-06T01:32:18.541Z,9.35
2022-10-06T01:33:18.530Z,9.51
2022-10-06T01:34:18.524Z,9.72
2022-10-06T01:35:18.496Z,10.31
2022-10-06T01:36:18.491Z,9.13
2022-10-06T01:37:18.477Z,9.78
2022-10-06T01:38:18.462Z,8.54
2022-10-06T01:39:18.454Z,9.72
2022-10-06T01:40:18.515Z,10.58
2022-10-06T01:41:18.431Z,10.37
2022-10-06T01:42:18.420Z,9.78
2022-10-06T01:43:18.411Z,9.83
2022-10-06T01:44:18.397Z,9.83
2022-10-06T01:45:18.415Z,9.72
2022-10-06T01:46:18.419Z,9.67
2022-10-06T01:47:18.370Z,9.78
2022-10-06T01:48:18.354Z,9.72
2022-10-06T01:49:18.350Z,9.40
2022-10-06T01:50:18.337Z,9.78
2022-10-06T01:51:18.335Z,10.31
2022-10-06T01:52:18.315Z,9.35
2022-10-06T01:53:18.308Z,9.13
2022-10-06T01:54:18.290Z,9.40
2022-10-06T01:55:18.285Z,9.24
2022-10-06T01:56:18.291Z,9.83
2022-10-06T01:57:18.265Z,10.74
2022-10-06T01:58:18.251Z,8.92
2022-10-06T01:59:18.239Z,9.88
2022-10-06T02:00:18.228Z,8.65
2022-10-06T02:01:18.274Z,9.72
2022-10-06T02:02:18.219Z,9.61
2022-10-06T02:03:18.198Z,10.47
2022-10-06T02:04:18.216Z,9.72
2022-10-06T02:05:18.179Z,9.72
2022-10-06T02:06:18.230Z,10.31
2022-10-06T02:07:18.152Z,9.18
2022-10-06T02:08:18.143Z,9.78
2022-10-06T02:09:18.130Z,9.72
2022-10-06T02:10:18.116Z,9.67
2022-10-06T02:11:18.123Z,9.72
2022-10-06T02:12:18.112Z,9.72
2022-10-06T02:13:18.088Z,9.72
2022-10-06T02:14:18.087Z,9.99
2022-10-06T02:15:18.068Z,9.61
2022-10-06T02:16:18.161Z,11.60
2022-10-06T02:17:18.102Z,9.61
2022-10-06T02:18:18.039Z,10.10
2022-10-06T02:19:18.020Z,8.38
2022-10-06T02:20:18.012Z,9.83
2022-10-06T02:21:18.002Z,9.24
2022-10-06T02:22:18.011Z,9.78
2022-10-06T02:23:18.012Z,10.15
2022-10-06T02:24:17.968Z,9.78
2022-10-06T02:25:17.960Z,9.24
2022-10-06T02:26:17.949Z,9.99
2022-10-06T02:27:17.938Z,9.83
2022-10-06T02:28:18.066Z,9.78
2022-10-06T02:29:17.946Z,8.75
2022-10-06T02:30:17.915Z,10.31
2022-10-06T02:31:17.984Z,10.80
2022-10-06T02:32:17.884Z,9.78
2022-10-06T02:33:17.874Z,9.78
2022-10-06T02:34:17.858Z,9.67
2022-10-06T02:35:17.860Z,9.83
2022-10-06T02:36:17.843Z,9.72
2022-10-06T02:37:17.830Z,9.02
2022-10-06T02:38:17.816Z,9.78
2022-10-06T02:39:17.808Z,9.67
2022-10-06T02:40:17.797Z,9.72
2022-10-06T02:41:17.795Z,9.72
2022-10-06T02:42:17.774Z,8.86
2022-10-06T02:43:17.791Z,8.49
2022-10-06T02:44:17.751Z,10.15
2022-10-06T02:45:17.743Z,9.72
2022-10-06T02:46:17.786Z,9.78
2022-10-06T02:47:17.724Z,9.67
2022-10-06T02:48:17.708Z,10.31
2022-10-06T02:49:17.721Z,9.72
2022-10-06T02:50:17.689Z,10.58
2022-10-06T02:51:17.683Z,10.42
2022-10-06T02:52:17.667Z,9.78
2022-10-06T02:53:17.657Z,9.02
2022-10-06T02:54:17.649Z,10.63
2022-10-06T02:55:17.652Z,9.72
2022-10-06T02:56:17.629Z,9.56
2022-10-06T02:57:17.614Z,9.67
2022-10-06T02:58:17.606Z,9.72
2022-10-06T02:59:17.606Z,10.63
2022-10-06T03:00:17.581Z,8.43
2022-10-06T03:01:17.600Z,10.47
2022-10-06T03:02:17.741Z,9.78
2022-10-06T03:03:17.547Z,9.72
2022-10-06T03:04:17.554Z,9.61
2022-10-06T03:05:17.527Z,10.37
2022-10-06T03:06:17.526Z,9.72
2022-10-06T03:07:17.504Z,9.72
2022-10-06T03:08:17.500Z,8.22
2022-10-06T03:09:17.496Z,9.99
2022-10-06T03:10:17.483Z,9.67
2022-10-06T03:11:17.463Z,9.67
2022-10-06T03:12:17.455Z,9.18
2022-10-06T03:13:17.460Z,9.61
2022-10-06T03:14:21.597Z,9.61
2022-10-06T03:15:17.427Z,10.74
2022-10-06T03:16:17.528Z,9.61
2022-10-06T03:17:17.410Z,10.42
2022-10-06T03:18:17.390Z,8.65
2022-10-06T03:19:17.375Z,10.37
2022-10-06T03:20:17.370Z,9.72
2022-10-06T03:21:17.377Z,9.56
2022-10-06T03:22:17.363Z,9.67
2022-10-06T03:23:17.333Z,10.37
2022-10-06T03:24:17.341Z,10.53
2022-10-06T03:25:17.314Z,9.78
2022-10-06T03:26:17.311Z,9.61
2022-10-06T03:27:17.294Z,9.83
2022-10-06T03:28:17.362Z,9.67
2022-10-06T03:29:17.264Z,9.67
2022-10-06T03:30:17.272Z,10.26
2022-10-06T03:31:17.282Z,8.65
2022-10-06T03:32:17.248Z,9.61
2022-10-06T03:33:17.226Z,10.26
2022-10-06T03:34:17.232Z,9.61
2022-10-06T03:35:17.206Z,10.69
2022-10-06T03:36:17.194Z,9.56
2022-10-06T03:37:17.180Z,9.61
2022-10-06T03:38:17.185Z,9.72
2022-10-06T03:39:17.169Z,9.72
2022-10-06T03:40:17.152Z,9.67
2022-10-06T03:41:17.150Z,9.83
2022-10-06T03:42:17.152Z,10.80
2022-10-06T03:43:17.125Z,10.15
2022-10-06T03:44:17.119Z,11.01
2022-10-06T03:45:17.092Z,9.72
2022-10-06T03:46:17.092Z,10.53
2022-10-06T03:47:17.692Z,9.61
2022-10-06T03:48:17.078Z,9.61
2022-10-06T03:49:17.051Z,9.02
2022-10-06T03:50:17.044Z,9.35
2022-10-06T03:51:17.032Z,8.92
2022-10-06T03:52:17.021Z,9.24
2022-10-06T03:53:17.016Z,10.53
2022-10-06T03:54:17.001Z,9.72
2022-10-06T03:55:16.987Z,9.78
2022-10-06T03:56:17.012Z,9.78
2022-10-06T03:57:16.965Z,9.67
2022-10-06T03:58:16.957Z,10.63
2022-10-06T03:59:16.944Z,9.83
2022-10-06T04:00:16.955Z,10.80
2022-10-06T04:01:17.183Z,10.58
2022-10-06T04:02:17.007Z,10.74
2022-10-06T04:03:16.899Z,9.78
2022-10-06T04:04:16.900Z,9.35
2022-10-06T04:05:16.879Z,9.83
2022-10-06T04:06:16.870Z,9.78
2022-10-06T04:07:16.856Z,8.65
2022-10-06T04:08:16.860Z,9.67
2022-10-06T04:09:16.837Z,9.88
2022-10-06T04:10:16.828Z,9.83
2022-10-06T04:11:16.814Z,9.83
2022-10-06T04:12:16.824Z,9.83
2022-10-06T04:13:16.795Z,10.37
2022-10-06T04:14:16.783Z,9.78
2022-10-06T04:15:16.772Z,9.67
2022-10-06T04:16:16.809Z,9.78
2022-10-06T04:17:16.759Z,8.97
2022-10-06T04:18:16.757Z,8.43
2022-10-06T04:19:16.728Z,9.72
2022-10-06T04:20:16.722Z,9.67
2022-10-06T04:21:16.710Z,9.67
2022-10-06T04:22:16.723Z,9.29
2022-10-06T04:23:16.694Z,9.72
2022-10-06T04:24:16.678Z,9.72
2022-10-06T04:25:16.680Z,9.83
2022-10-06T04:26:16.659Z,9.35
2022-10-06T04:27:16.682Z,9.67
2022-10-06T04:28:16.717Z,9.67
2022-10-06T04:29:16.619Z,9.67
2022-10-06T04:30:16.614Z,8.92
2022-10-06T04:31:16.691Z,10.15
2022-10-06T04:32:16.589Z,9.67
2022-10-06T04:33:16.594Z,8.75
2022-10-06T04:34:16.570Z,9.78
2022-10-06T04:35:16.561Z,9.61
2022-10-06T04:36:16.552Z,9.67
2022-10-06T04:37:16.538Z,9.72
2022-10-06T04:38:16.536Z,9.72
2022-10-06T04:39:16.972Z,11.06
2022-10-06T04:40:16.505Z,9.18
2022-10-06T04:41:16.506Z,9.83
2022-10-06T04:42:16.482Z,9.72
2022-10-06T04:43:16.488Z,9.88
2022-10-06T04:44:16.462Z,10.37
2022-10-06T04:45:16.449Z,9.72
2022-10-06T04:46:41.707Z,9.83
2022-10-06T04:47:16.436Z,10.15
2022-10-06T04:48:16.432Z,10.47
2022-10-06T04:49:20.635Z,9.99
2022-10-06T04:50:16.409Z,9.72
2022-10-06T04:51:16.385Z,10.47
2022-10-06T04:52:16.389Z,10.80
2022-10-06T04:53:16.362Z,8.54
2022-10-06T04:54:16.360Z,9.72
2022-10-06T04:55:16.346Z,10.80
2022-10-06T04:56:16.331Z,10.42
2022-10-06T04:57:16.277Z,9.83
2022-10-06T04:58:16.312Z,9.83
2022-10-06T04:59:16.256Z,9.18
2022-10-06T05:00:16.238Z,9.67
2022-10-06T05:01:16.306Z,9.78
2022-10-06T05:02:16.298Z,10.63
2022-10-06T05:03:16.200Z,10.26
2022-10-06T05:04:16.250Z,9.13
2022-10-06T05:05:16.237Z,9.88
2022-10-06T05:06:16.228Z,9.83
2022-10-06T05:07:16.225Z,9.94
2022-10-06T05:08:16.158Z,9.88
2022-10-06T05:09:16.162Z,10.80
2022-10-06T05:10:16.130Z,9.83
2022-10-06T05:11:18.146Z,9.94
2022-10-06T05:12:16.118Z,10.90
2022-10-06T05:13:16.120Z,11.01
2022-10-06T05:14:16.085Z,9.72
2022-10-06T05:15:16.079Z,10.58
2022-10-06T05:16:16.154Z,9.94
2022-10-06T05:17:16.056Z,9.99
2022-10-06T05:18:16.048Z,9.02
2022-10-06T05:19:16.042Z,9.83
2022-10-06T05:20:16.033Z,8.97
2022-10-06T05:21:16.028Z,10.04
2022-10-06T05:22:16.003Z,11.12
2022-10-06T05:23:15.995Z,9.94
2022-10-06T05:24:15.989Z,9.99
2022-10-06T05:25:15.964Z,9.94
2022-10-06T05:26:15.953Z,9.02
2022-10-06T05:27:15.945Z,10.15
2022-10-06T05:28:15.968Z,10.96
2022-10-06T05:29:15.932Z,11.01
2022-10-06T05:30:15.913Z,11.66
2022-10-06T05:31:15.927Z,10.69
2022-10-06T05:32:15.914Z,9.99
2022-10-06T05:33:15.888Z,10.04
2022-10-06T05:34:15.871Z,10.04
2022-10-06T05:35:15.868Z,9.94
2022-10-06T05:36:15.847Z,9.13
2022-10-06T05:37:15.835Z,10.42
2022-10-06T05:38:15.825Z,9.94
2022-10-06T05:39:15.824Z,10.10
2022-10-06T05:40:15.805Z,10.04
2022-10-06T05:41:15.790Z,9.67
2022-10-06T05:42:15.783Z,10.26
2022-10-06T05:43:15.770Z,9.94
2022-10-06T05:44:15.777Z,9.51
2022-10-06T05:45:15.750Z,9.94
2022-10-06T05:46:15.801Z,10.10
2022-10-06T05:47:15.724Z,10.04
2022-10-06T05:48:15.716Z,10.21
2022-10-06T05:49:15.708Z,10.04
2022-10-06T05:50:15.702Z,9.94
2022-10-06T05:51:15.684Z,9.99
2022-10-06T05:52:15.676Z,9.99
2022-10-06T05:53:15.661Z,10.04
2022-10-06T05:54:15.649Z,10.10
2022-10-06T05:55:15.671Z,10.69
2022-10-06T05:56:15.639Z,10.15
2022-10-06T05:57:15.626Z,8.06
2022-10-06T05:58:18.466Z,8.65
2022-10-06T05:59:15.594Z,9.78
2022-10-06T06:00:15.585Z,10.04
2022-10-06T06:01:15.599Z,10.04
2022-10-06T06:02:15.742Z,10.10
2022-10-06T06:03:15.553Z,10.15
2022-10-06T06:04:15.546Z,10.10
2022-10-06T06:05:15.529Z,9.18
2022-10-06T06:06:15.522Z,10.10
2022-10-06T06:07:15.531Z,10.37
2022-10-06T06:08:15.498Z,10.15
2022-10-06T06:09:15.484Z,9.40
2022-10-06T06:10:15.474Z,10.15
2022-10-06T06:11:15.463Z,9.99
2022-10-06T06:12:15.454Z,10.15
2022-10-06T06:13:15.452Z,10.90
2022-10-06T06:14:15.431Z,10.90
2022-10-06T06:15:15.420Z,10.15
2022-10-06T06:16:15.471Z,10.15
2022-10-06T06:17:15.405Z,10.53
2022-10-06T06:18:15.386Z,11.01
2022-10-06T06:19:15.387Z,10.42
2022-10-06T06:20:15.371Z,10.26
2022-10-06T06:21:15.353Z,9.40
2022-10-06T06:22:15.345Z,9.88
2022-10-06T06:23:15.337Z,10.74
2022-10-06T06:24:15.344Z,10.47
2022-10-06T06:25:15.308Z,10.15
2022-10-06T06:26:15.308Z,10.15
2022-10-06T06:27:15.287Z,10.21
2022-10-06T06:28:15.375Z,9.72
2022-10-06T06:29:15.280Z,10.15
2022-10-06T06:30:15.256Z,11.06
2022-10-06T06:31:19.936Z,9.02
2022-10-06T06:32:15.252Z,10.15
2022-10-06T06:33:15.223Z,10.74
2022-10-06T06:34:15.226Z,10.31
2022-10-06T06:35:15.225Z,10.15
2022-10-06T06:36:15.192Z,10.21
2022-10-06T06:37:15.575Z,10.21
2022-10-06T06:38:15.182Z,10.85
2022-10-06T06:39:15.155Z,10.69
2022-10-06T06:40:15.148Z,9.67
2022-10-06T06:41:15.136Z,10.15
2022-10-06T06:42:15.128Z,10.15
2022-10-06T06:43:15.111Z,10.21
2022-10-06T06:44:15.116Z,11.39
2022-10-06T06:45:15.091Z,10.21
2022-10-06T06:46:15.224Z,9.29
2022-10-06T06:47:15.069Z,10.26
2022-10-06T06:48:15.062Z,8.81
2022-10-06T06:49:15.064Z,10.31
2022-10-06T06:50:15.040Z,10.31
2022-10-06T06:51:15.026Z,10.31
2022-10-06T06:52:15.018Z,9.45
2022-10-06T06:53:16.296Z,10.21
2022-10-06T06:54:14.997Z,11.23
2022-10-06T06:55:14.997Z,9.35
2022-10-06T06:56:14.976Z,9.72
2022-10-06T06:57:14.961Z,10.31
2022-10-06T06:58:14.952Z,10.26
2022-10-06T06:59:14.941Z,10.37
2022-10-06T07:00:14.941Z,10.37
2022-10-06T07:01:14.979Z,11.01
2022-10-06T07:02:14.950Z,11.71
2022-10-06T07:03:14.896Z,10.47
2022-10-06T07:04:14.887Z,10.58
2022-10-06T07:05:14.878Z,10.37
2022-10-06T07:06:14.873Z,10.42
2022-10-06T07:07:14.850Z,10.42
2022-10-06T07:08:14.845Z,10.58
2022-10-06T07:09:14.833Z,10.42
2022-10-06T07:10:14.818Z,12.14
2022-10-06T07:11:14.830Z,11.01
2022-10-06T07:12:14.801Z,10.47
2022-10-06T07:13:14.787Z,11.39
2022-10-06T07:14:14.785Z,10.37
2022-10-06T07:15:14.768Z,10.47
2022-10-06T07:16:14.814Z,9.45
2022-10-06T07:17:14.748Z,11.23
2022-10-06T07:18:14.745Z,9.40
2022-10-06T07:19:14.726Z,9.88
2022-10-06T07:20:14.752Z,9.45
2022-10-06T07:21:14.704Z,10.74
2022-10-06T07:22:14.700Z,10.47
2022-10-06T07:23:14.687Z,10.58
2022-10-06T07:24:14.673Z,10.47
2022-10-06T07:25:14.668Z,12.03
2022-10-06T07:26:14.645Z,9.72
2022-10-06T07:27:14.648Z,10.74
2022-10-06T07:28:14.714Z,10.53
2022-10-06T07:29:14.618Z,10.53
2022-10-06T07:30:14.603Z,10.58
2022-10-06T07:31:14.630Z,11.28
2022-10-06T07:32:14.585Z,10.63
2022-10-06T07:33:14.601Z,10.63
2022-10-06T07:34:14.571Z,9.83
2022-10-06T07:35:14.558Z,10.63
2022-10-06T07:36:14.540Z,10.58
2022-10-06T07:37:14.533Z,10.53
2022-10-06T07:38:14.516Z,9.78
2022-10-06T07:39:14.527Z,10.53
2022-10-06T07:40:14.499Z,9.72
2022-10-06T07:41:20.133Z,10.21
2022-10-06T07:42:14.482Z,10.74
2022-10-06T07:43:14.469Z,10.37
2022-10-06T07:44:14.469Z,9.94
2022-10-06T07:45:14.449Z,10.63
2022-10-06T07:46:14.494Z,11.28
2022-10-06T07:47:14.424Z,10.63
2022-10-06T07:48:14.570Z,11.28
2022-10-06T07:49:14.421Z,10.58
2022-10-06T07:50:14.394Z,10.04
2022-10-06T07:51:14.389Z,10.10
2022-10-06T07:52:14.369Z,10.63
2022-10-06T07:53:14.361Z,10.58
2022-10-06T07:54:14.348Z,10.63
2022-10-06T07:55:14.348Z,10.10
2022-10-06T07:56:14.341Z,11.28
2022-10-06T07:57:14.329Z,10.31
2022-10-06T07:58:14.309Z,10.53
2022-10-06T07:59:14.303Z,9.83
2022-10-06T08:00:14.283Z,10.63
2022-10-06T08:01:14.283Z,10.10
2022-10-06T08:02:14.328Z,10.58
2022-10-06T08:03:14.324Z,10.63
2022-10-06T08:04:14.240Z,10.69
2022-10-06T08:05:14.231Z,10.21
2022-10-06T08:06:14.245Z,10.63
2022-10-06T08:07:14.224Z,10.69
2022-10-06T08:08:14.203Z,9.40
2022-10-06T08:09:14.188Z,10.63
2022-10-06T08:10:14.173Z,9.67
2022-10-06T08:11:14.171Z,11.28
2022-10-06T08:12:14.169Z,9.83
2022-10-06T08:13:14.144Z,10.69
2022-10-06T08:14:14.135Z,9.45
2022-10-06T08:15:14.129Z,9.56
2022-10-06T08:16:14.202Z,11.92
2022-10-06T08:17:14.107Z,11.39
2022-10-06T08:18:33.761Z,11.49
2022-10-06T08:19:14.099Z,9.29
2022-10-06T08:20:14.087Z,10.58
2022-10-06T08:21:14.062Z,10.90
2022-10-06T08:22:14.055Z,10.69
2022-10-06T08:23:14.040Z,10.74
2022-10-06T08:24:14.032Z,10.69
2022-10-06T08:25:14.235Z,11.66
2022-10-06T08:26:14.007Z,9.88
2022-10-06T08:27:13.995Z,10.80
2022-10-06T08:28:14.036Z,10.69
2022-10-06T08:29:13.974Z,10.69
2022-10-06T08:30:13.961Z,10.74
2022-10-06T08:31:14.008Z,10.74
2022-10-06T08:32:13.940Z,10.63
2022-10-06T08:33:13.944Z,10.80
2022-10-06T08:34:13.933Z,10.69
2022-10-06T08:35:13.909Z,10.58
2022-10-06T08:36:13.892Z,10.69
2022-10-06T08:37:20.285Z,10.04
2022-10-06T08:38:13.900Z,9.61
2022-10-06T08:39:13.877Z,10.69
2022-10-06T08:40:13.849Z,10.69
2022-10-06T08:41:13.857Z,10.69
2022-10-06T08:42:13.842Z,10.63
2022-10-06T08:43:13.912Z,10.63
2022-10-06T08:44:13.824Z,10.58
2022-10-06T08:45:13.802Z,11.66
2022-10-06T08:46:13.792Z,10.63
2022-10-06T08:47:13.801Z,11.87
2022-10-06T08:48:13.765Z,9.99
2022-10-06T08:49:13.760Z,10.69
2022-10-06T08:50:13.757Z,10.74
2022-10-06T08:51:13.739Z,10.31
2022-10-06T08:52:13.726Z,10.90
2022-10-06T08:53:15.633Z,10.80
2022-10-06T08:54:13.703Z,10.80
2022-10-06T08:55:13.696Z,12.41
2022-10-06T08:56:13.691Z,10.85
2022-10-06T08:57:13.682Z,11.82
2022-10-06T08:58:13.664Z,10.15
2022-10-06T08:59:13.655Z,11.23
2022-10-06T09:00:14.955Z,10.96
2022-10-06T09:01:13.661Z,11.01
2022-10-06T09:02:13.676Z,10.69
2022-10-06T09:03:13.605Z,11.06
2022-10-06T09:04:13.592Z,10.58
2022-10-06T09:05:13.593Z,10.37
2022-10-06T09:06:13.576Z,11.06
2022-10-06T09:07:13.564Z,10.69
2022-10-06T09:08:13.563Z,12.30
2022-10-06T09:09:13.546Z,10.42
2022-10-06T09:10:13.527Z,11.33
2022-10-06T09:11:13.523Z,10.21
2022-10-06T09:12:13.525Z,11.33
2022-10-06T09:13:15.505Z,10.47
2022-10-06T09:14:13.485Z,11.33
2022-10-06T09:15:13.471Z,10.74
2022-10-06T09:16:13.523Z,12.19
2022-10-06T09:17:13.451Z,11.17
2022-10-06T09:18:13.451Z,10.47
2022-10-06T09:19:13.426Z,11.33
2022-10-06T09:20:13.414Z,12.35
2022-10-06T09:21:13.421Z,11.92
2022-10-06T09:22:13.407Z,11.33
2022-10-06T09:23:13.410Z,11.28
2022-10-06T09:24:13.368Z,10.04
2022-10-06T09:25:13.367Z,11.17
2022-10-06T09:26:13.353Z,11.17
2022-10-06T09:27:13.350Z,11.92
2022-10-06T09:28:13.397Z,11.55
2022-10-06T09:29:13.338Z,11.06
2022-10-06T09:30:13.320Z,11.28
2022-10-06T09:31:13.347Z,11.49
2022-10-06T09:32:13.286Z,11.33
2022-10-06T09:33:13.273Z,12.46
2022-10-06T09:34:13.259Z,12.46
2022-10-06T09:35:13.273Z,12.46
2022-10-06T09:36:13.241Z,11.92
2022-10-06T09:37:13.229Z,12.57
2022-10-06T09:38:13.238Z,13.70
2022-10-06T09:39:13.222Z,12.62
2022-10-06T09:40:13.196Z,12.94
2022-10-06T09:41:13.185Z,12.68
2022-10-06T09:42:13.174Z,12.68
2022-10-06T09:43:13.165Z,13.00
2022-10-06T09:44:13.150Z,14.07
2022-10-06T09:45:13.158Z,13.32
2022-10-06T09:46:13.145Z,12.62
2022-10-06T09:47:13.124Z,9.94
2022-10-06T09:48:13.110Z,12.62
2022-10-06T09:49:13.113Z,13.48
2022-10-06T09:50:13.097Z,12.68
2022-10-06T09:51:13.082Z,11.98
2022-10-06T09:52:13.075Z,11.82
2022-10-06T09:53:13.059Z,12.89
2022-10-06T09:54:13.044Z,12.08
2022-10-06T09:55:13.037Z,14.18
2022-10-06T09:56:13.032Z,13.11
2022-10-06T09:57:13.013Z,13.05
2022-10-06T09:58:13.010Z,13.00
2022-10-06T09:59:12.996Z,12.94
2022-10-06T10:00:12.978Z,12.78
2022-10-06T10:01:13.041Z,13.70
2022-10-06T10:02:12.956Z,12.68
2022-10-06T10:03:13.053Z,12.62
2022-10-06T10:04:20.539Z,12.62
2022-10-06T10:05:12.945Z,12.57
2022-10-06T10:06:12.920Z,12.68
2022-10-06T10:07:12.905Z,12.73
2022-10-06T10:08:12.893Z,12.68
2022-10-06T10:09:14.702Z,12.46
2022-10-06T10:10:12.882Z,12.62
2022-10-06T10:11:12.863Z,12.73
2022-10-06T10:12:12.855Z,12.03
2022-10-06T10:13:12.845Z,12.62
2022-10-06T10:14:12.828Z,12.57
2022-10-06T10:15:12.831Z,12.46
2022-10-06T10:16:12.862Z,12.51
2022-10-06T10:17:12.799Z,12.51
2022-10-06T10:18:12.873Z,12.84
2022-10-06T10:19:12.786Z,12.08
2022-10-06T10:20:12.764Z,12.25
2022-10-06T10:21:12.779Z,12.73
2022-10-06T10:22:12.753Z,11.33
2022-10-06T10:23:12.737Z,12.25
2022-10-06T10:24:12.741Z,13.27
2022-10-06T10:25:12.718Z,12.62
2022-10-06T10:26:12.703Z,12.57
2022-10-06T10:27:12.695Z,12.41
2022-10-06T10:28:12.710Z,12.25
2022-10-06T10:29:12.672Z,12.68
2022-10-06T10:30:12.671Z,10.74
2022-10-06T10:31:12.695Z,11.92
2022-10-06T10:32:12.638Z,11.87
2022-10-06T10:33:12.680Z,12.68
2022-10-06T10:34:23.566Z,11.55
2022-10-06T10:35:12.619Z,11.71
2022-10-06T10:36:12.606Z,11.66
2022-10-06T10:37:12.587Z,11.12
2022-10-06T10:38:14.889Z,12.14
2022-10-06T10:39:12.565Z,12.19
2022-10-06T10:40:12.552Z,12.84
2022-10-06T10:41:12.563Z,13.37
2022-10-06T10:42:12.531Z,10.85
2022-10-06T10:43:12.529Z,11.87
2022-10-06T10:44:12.507Z,11.06
2022-10-06T10:45:12.501Z,11.92
2022-10-06T10:46:12.578Z,10.42
2022-10-06T10:47:12.501Z,11.39
2022-10-06T10:48:12.486Z,12.19
2022-10-06T10:49:12.457Z,12.30
2022-10-06T10:50:12.446Z,11.71
2022-10-06T10:51:12.436Z,12.68
2022-10-06T10:52:12.440Z,12.73
2022-10-06T10:53:12.431Z,13.00
2022-10-06T10:54:12.411Z,13.00
2022-10-06T10:55:12.391Z,12.41
2022-10-06T10:56:12.377Z,12.46
2022-10-06T10:57:12.379Z,13.27
2022-10-06T10:58:12.363Z,13.21
2022-10-06T10:59:12.362Z,13.27
2022-10-06T11:00:12.335Z,13.32
2022-10-06T11:01:12.400Z,13.43
2022-10-06T11:02:12.406Z,13.48
2022-10-06T11:03:12.321Z,13.64
2022-10-06T11:04:12.303Z,13.43
2022-10-06T11:05:12.287Z,13.59
2022-10-06T11:06:12.274Z,13.21
2022-10-06T11:07:12.274Z,13.54
2022-10-06T11:08:12.270Z,13.59
2022-10-06T11:09:12.245Z,12.57
2022-10-06T11:10:12.294Z,13.48
2022-10-06T11:11:12.223Z,13.59
2022-10-06T11:12:12.212Z,13.27
2022-10-06T11:13:12.203Z,13.64
2022-10-06T11:14:12.207Z,12.68
2022-10-06T11:15:12.180Z,14.99
2022-10-06T11:16:12.236Z,13.32
2022-10-06T11:17:12.160Z,13.37
2022-10-06T11:18:12.145Z,12.57
2022-10-06T11:19:12.135Z,13.27
2022-10-06T11:20:12.185Z,13.86
2022-10-06T11:21:12.118Z,14.18
2022-10-06T11:22:12.102Z,13.43
2022-10-06T11:23:12.099Z,13.37
2022-10-06T11:24:12.084Z,12.46
2022-10-06T11:25:12.085Z,13.96
2022-10-06T11:26:12.065Z,14.45
2022-10-06T11:27:12.063Z,13.64
2022-10-06T11:28:12.082Z,13.64
2022-10-06T11:29:12.035Z,12.57
2022-10-06T11:30:12.116Z,13.32
2022-10-06T11:31:12.067Z,13.05
2022-10-06T11:32:12.013Z,12.94
2022-10-06T11:33:11.989Z,12.78
2022-10-06T11:34:11.997Z,12.73
2022-10-06T11:35:11.981Z,11.39
2022-10-06T11:36:11.968Z,11.55
2022-10-06T11:37:11.947Z,12.84
2022-10-06T11:38:11.955Z,12.35
2022-10-06T11:39:11.922Z,13.05
2022-10-06T11:40:11.922Z,12.46
2022-10-06T11:41:11.901Z,13.96
2022-10-06T11:42:11.896Z,13.32
2022-10-06T11:43:11.895Z,13.32
2022-10-06T11:44:11.876Z,13.70
2022-10-06T11:45:11.862Z,11.82
2022-10-06T11:46:11.988Z,14.18
2022-10-06T11:47:11.847Z,13.48
2022-10-06T11:48:11.833Z,13.54
2022-10-06T11:49:11.819Z,14.07
2022-10-06T11:50:11.839Z,14.18
2022-10-06T11:51:11.812Z,13.48
2022-10-06T11:52:11.811Z,14.02
2022-10-06T11:53:11.777Z,13.54
2022-10-06T11:54:11.775Z,14.56
2022-10-06T11:55:11.756Z,14.61
2022-10-06T11:56:11.752Z,14.23
2022-10-06T11:57:11.739Z,13.70
2022-10-06T11:58:37.376Z,13.70
2022-10-06T11:59:11.722Z,13.80
2022-10-06T12:00:11.717Z,13.80
2022-10-06T12:01:11.695Z,13.80
2022-10-06T12:02:11.833Z,13.75
2022-10-06T12:03:11.795Z,13.80
2022-10-06T12:04:11.665Z,14.18
2022-10-06T12:05:35.072Z,13.64
2022-10-06T12:06:11.650Z,12.62
2022-10-06T12:07:11.643Z,14.77
2022-10-06T12:08:11.638Z,13.59
2022-10-06T12:09:11.614Z,12.46
2022-10-06T12:10:11.604Z,14.29
2022-10-06T12:11:11.752Z,13.59
2022-10-06T12:12:11.583Z,12.73
2022-10-06T12:13:31.783Z,14.88
2022-10-06T12:15:59.724Z,14.13
2022-10-06T12:17:12.812Z,13.75
2022-10-06T12:17:20.158Z,13.54
2022-10-06T12:18:09.181Z,13.86
2022-10-06T12:19:09.172Z,13.70
2022-10-06T12:20:09.238Z,13.75
2022-10-06T12:21:09.148Z,13.75
2022-10-06T12:22:09.137Z,13.21
2022-10-06T12:23:09.134Z,13.80
2022-10-06T12:24:09.132Z,13.75
2022-10-06T12:25:09.112Z,13.05
2022-10-06T12:26:09.107Z,13.91
2022-10-06T12:27:09.109Z,14.39
2022-10-06T12:28:09.112Z,13.86
2022-10-06T12:29:09.071Z,13.91
2022-10-06T12:30:09.130Z,13.86
2022-10-06T12:31:09.097Z,14.66
2022-10-06T12:32:09.035Z,12.94
2022-10-06T12:33:09.044Z,13.64
2022-10-06T12:34:09.016Z,12.89
2022-10-06T12:35:09.007Z,14.56
2022-10-06T12:36:09.008Z,13.86
2022-10-06T12:37:08.989Z,13.80
2022-10-06T12:38:08.972Z,13.54
2022-10-06T12:39:08.966Z,13.70
2022-10-06T12:40:09.043Z,13.54
2022-10-06T12:41:08.966Z,13.21
2022-10-06T12:42:08.931Z,12.51
2022-10-06T12:43:08.926Z,13.64
2022-10-06T12:44:08.910Z,12.84
2022-10-06T12:45:08.902Z,13.70
2022-10-06T12:46:08.948Z,14.07
2022-10-06T12:47:08.890Z,13.32
2022-10-06T12:48:08.868Z,12.25
2022-10-06T12:49:08.890Z,12.41
2022-10-06T12:50:08.851Z,12.78
2022-10-06T12:51:08.840Z,12.84
2022-10-06T12:52:08.852Z,12.78
2022-10-06T12:53:08.822Z,12.89
2022-10-06T12:54:08.805Z,12.94
2022-10-06T12:55:08.798Z,13.96
2022-10-06T12:56:08.787Z,13.05
2022-10-06T12:57:08.812Z,12.68
2022-10-06T12:58:08.777Z,13.37
2022-10-06T12:59:08.758Z,13.16
2022-10-06T13:00:08.755Z,13.80
2022-10-06T13:01:08.762Z,13.91
2022-10-06T13:02:08.791Z,13.21
2022-10-06T13:03:08.719Z,14.39